Time;durP1;ratioP1;P1;durP2;ratioP2;P2;SDS_P1;SDS_P2;PMS_P1;PMS_P2;Temp;Humidity;BMP_temperature;BMP_pressure;BME280_temperature;BME280_humidity;BME280_pressure;Samples;Min_cycle;Max_cycle;Signal;HPM_P1;HPM_P2
2021/06/30 00:01:05;;;;;;;7.57;4.45;;;;;;;;;;5069732;28;20205;-54
2021/06/30 00:03:30;;;;;;;14.70;5.57;;;;;;;;;;5075216;28;20231;-55
2021/06/30 00:05:56;;;;;;;17.17;6.07;;;;;;;;;;5067943;28;20185;-55
2021/06/30 00:08:21;;;;;;;15.95;6.00;;;;;;;;;;5051001;28;20226;-53
2021/06/30 00:10:47;;;;;;;11.35;5.95;;;;;;;;;;5049952;28;20217;-54
2021/06/30 00:13:13;;;;;;;20.85;6.18;;;;;;;;;;5073209;28;20217;-55
2021/06/30 00:15:40;;;;;;;14.77;5.80;;;;;;;;;;5052429;28;20193;-54
2021/06/30 00:18:05;;;;;;;17.00;5.88;;;;;;;;;;5069684;28;20786;-52
2021/06/30 00:20:31;;;;;;;12.25;6.32;;;;;;;;;;5069183;28;20173;-54
2021/06/30 00:22:56;;;;;;;15.45;7.32;;;;;;;;;;5066499;28;20211;-53
2021/06/30 00:25:22;;;;;;;13.70;5.75;;;;;;;;;;5052271;28;20231;-52
2021/06/30 00:27:48;;;;;;;9.30;5.72;;;;;;;;;;5064524;28;20186;-54
2021/06/30 00:30:15;;;;;;;16.95;7.20;;;;;;;;;;5064934;28;20317;-53
2021/06/30 00:32:40;;;;;;;14.00;6.82;;;;;;;;;;5065583;28;20258;-54
2021/06/30 00:35:06;;;;;;;11.15;6.10;;;;;;;;;;5056809;28;20189;-54
2021/06/30 00:37:32;;;;;;;11.05;6.22;;;;;;;;;;5067334;28;20241;-54
2021/06/30 00:39:57;;;;;;;9.10;4.95;;;;;;;;;;5069004;28;20319;-54
2021/06/30 00:42:22;;;;;;;8.85;5.60;;;;;;;;;;5049410;28;20216;-54
2021/06/30 00:44:47;;;;;;;8.57;5.85;;;;;;;;;;5064882;28;20185;-54
2021/06/30 00:47:13;;;;;;;12.60;5.57;;;;;;;;;;5066452;28;20184;-54
2021/06/30 00:49:38;;;;;;;6.63;5.45;;;;;;;;;;5067148;28;20238;-53
2021/06/30 00:52:04;;;;;;;5.82;5.25;;;;;;;;;;5070765;28;20209;-54
2021/06/30 00:54:30;;;;;;;5.82;5.20;;;;;;;;;;5050800;28;20189;-53
2021/06/30 00:56:56;;;;;;;11.82;5.13;;;;;;;;;;5067239;28;20200;-53
2021/06/30 00:59:22;;;;;;;3.83;2.42;;;;;;;;;;5068236;28;20184;-54
2021/06/30 01:01:47;;;;;;;8.73;3.20;;;;;;;;;;5066893;28;20212;-53
2021/06/30 01:04:13;;;;;;;5.47;4.03;;;;;;;;;;5069127;28;20181;-54
2021/06/30 01:06:38;;;;;;;3.38;3.05;;;;;;;;;;5067437;28;20251;-52
2021/06/30 01:09:06;;;;;;;5.55;3.50;;;;;;;;;;5068125;28;20184;-53
2021/06/30 01:11:33;;;;;;;4.05;2.80;;;;;;;;;;5064746;28;20193;-54
2021/06/30 01:13:58;;;;;;;5.82;3.47;;;;;;;;;;5068238;28;20216;-54
2021/06/30 01:16:24;;;;;;;7.65;3.05;;;;;;;;;;5049491;28;20561;-54
2021/06/30 01:18:49;;;;;;;5.78;3.35;;;;;;;;;;5048679;28;20190;-54
2021/06/30 01:21:15;;;;;;;5.00;3.05;;;;;;;;;;5052135;28;20570;-54
2021/06/30 01:23:42;;;;;;;7.55;3.22;;;;;;;;;;5066222;28;20215;-54
2021/06/30 01:26:08;;;;;;;6.10;3.60;;;;;;;;;;5065262;28;20187;-54
2021/06/30 01:28:34;;;;;;;6.32;3.03;;;;;;;;;;5066896;28;20316;-52
2021/06/30 01:31:00;;;;;;;7.75;3.50;;;;;;;;;;5053670;28;20196;-53
2021/06/30 01:33:26;;;;;;;4.43;2.90;;;;;;;;;;5061054;28;20202;-54
2021/06/30 01:35:51;;;;;;;8.13;4.45;;;;;;;;;;5066275;28;20746;-52
2021/06/30 01:38:22;;;;;;;6.90;4.32;;;;;;;;;;5043108;28;20679;-54
2021/06/30 01:40:48;;;;;;;4.43;3.80;;;;;;;;;;5045795;28;20300;-52
2021/06/30 01:43:14;;;;;;;4.30;3.38;;;;;;;;;;5048582;28;20714;-54
2021/06/30 01:45:39;;;;;;;5.65;3.63;;;;;;;;;;5064446;28;20193;-54
2021/06/30 01:48:04;;;;;;;3.13;2.92;;;;;;;;;;5063280;28;20197;-53
2021/06/30 01:50:30;;;;;;;4.28;3.40;;;;;;;;;;5068740;28;20215;-55
2021/06/30 01:52:55;;;;;;;5.10;3.40;;;;;;;;;;5052510;28;20213;-54
2021/06/30 01:55:20;;;;;;;4.70;3.13;;;;;;;;;;5068541;28;20181;-54
2021/06/30 01:57:48;;;;;;;3.83;3.10;;;;;;;;;;5066689;28;20189;-54
2021/06/30 02:00:16;;;;;;;3.05;2.70;;;;;;;;;;5063459;28;20185;-54
2021/06/30 02:02:42;;;;;;;5.85;3.10;;;;;;;;;;5062821;28;20216;-54
2021/06/30 02:05:10;;;;;;;3.20;2.60;;;;;;;;;;5064971;28;20303;-54
2021/06/30 02:07:36;;;;;;;3.47;2.60;;;;;;;;;;5064691;28;20189;-53
2021/06/30 02:10:05;;;;;;;5.40;2.85;;;;;;;;;;5062459;28;20254;-54
2021/06/30 02:12:31;;;;;;;4.38;2.72;;;;;;;;;;5064039;28;20242;-55
2021/06/30 02:14:56;;;;;;;3.25;1.90;;;;;;;;;;5065108;28;20554;-54
2021/06/30 02:17:21;;;;;;;20.23;2.20;;;;;;;;;;5061466;28;20173;-52
2021/06/30 02:19:49;;;;;;;1.60;1.50;;;;;;;;;;5062645;28;20272;-54
2021/06/30 02:22:16;;;;;;;1.75;1.65;;;;;;;;;;5061277;28;20209;-54
2021/06/30 02:24:41;;;;;;;4.13;1.73;;;;;;;;;;5062868;28;20181;-54
2021/06/30 02:27:07;;;;;;;2.58;1.98;;;;;;;;;;5067406;28;20196;-54
2021/06/30 02:29:32;;;;;;;3.90;2.05;;;;;;;;;;5061929;28;20169;-55
2021/06/30 02:31:57;;;;;;;2.75;1.90;;;;;;;;;;5060571;28;20209;-54
2021/06/30 02:34:23;;;;;;;2.55;2.30;;;;;;;;;;5057433;28;20182;-54
2021/06/30 02:36:48;;;;;;;2.10;1.90;;;;;;;;;;5060187;28;20220;-54
2021/06/30 02:39:13;;;;;;;3.92;1.90;;;;;;;;;;5063996;28;20178;-54
2021/06/30 02:41:38;;;;;;;2.72;1.70;;;;;;;;;;5061655;28;20209;-54
2021/06/30 02:44:04;;;;;;;3.03;1.80;;;;;;;;;;5060451;28;20224;-54
2021/06/30 02:46:29;;;;;;;5.28;2.20;;;;;;;;;;5046855;28;20197;-54
2021/06/30 02:48:54;;;;;;;1.55;1.30;;;;;;;;;;5065803;28;20212;-54
2021/06/30 02:51:20;;;;;;;4.40;1.65;;;;;;;;;;5062488;28;20262;-54
2021/06/30 02:53:45;;;;;;;1.50;1.38;;;;;;;;;;5057581;28;20209;-54
2021/06/30 02:56:10;;;;;;;7.50;1.60;;;;;;;;;;5047949;28;20177;-54
2021/06/30 02:58:35;;;;;;;1.77;1.55;;;;;;;;;;5046153;28;20193;-54
2021/06/30 03:01:01;;;;;;;2.20;1.60;;;;;;;;;;5060205;28;20205;-54
2021/06/30 03:03:26;;;;;;;1.92;1.48;;;;;;;;;;5060264;28;20238;-54
2021/06/30 03:05:51;;;;;;;1.77;1.52;;;;;;;;;;5063925;28;20200;-54
2021/06/30 03:08:17;;;;;;;3.47;1.75;;;;;;;;;;5062658;28;20199;-55
2021/06/30 03:10:42;;;;;;;3.22;1.73;;;;;;;;;;5060531;28;20177;-54
2021/06/30 03:13:08;;;;;;;2.20;1.70;;;;;;;;;;5059075;28;20202;-54
2021/06/30 03:15:33;;;;;;;1.45;1.35;;;;;;;;;;5060602;28;20567;-54
2021/06/30 03:17:58;;;;;;;2.65;1.35;;;;;;;;;;5063983;28;20548;-54
2021/06/30 03:20:24;;;;;;;2.95;1.65;;;;;;;;;;5059115;28;20264;-54
2021/06/30 03:22:49;;;;;;;2.75;1.48;;;;;;;;;;5061612;28;20637;-54
2021/06/30 03:25:15;;;;;;;1.98;1.50;;;;;;;;;;5047208;28;20186;-54
2021/06/30 03:27:41;;;;;;;2.67;1.80;;;;;;;;;;5062597;28;20189;-54
2021/06/30 03:30:09;;;;;;;3.15;1.88;;;;;;;;;;5062372;28;20579;-55
2021/06/30 03:32:35;;;;;;;5.45;1.90;;;;;;;;;;5065949;28;20693;-54
2021/06/30 03:35:01;;;;;;;2.42;1.58;;;;;;;;;;5062659;28;20193;-55
2021/06/30 03:37:26;;;;;;;5.85;1.73;;;;;;;;;;5062769;28;20243;-55
2021/06/30 03:39:52;;;;;;;4.30;1.20;;;;;;;;;;5065805;28;20190;-54
2021/06/30 03:42:17;;;;;;;6.82;1.42;;;;;;;;;;5064240;28;20209;-58
2021/06/30 03:44:42;;;;;;;3.15;1.23;;;;;;;;;;5062571;28;20173;-54
2021/06/30 03:47:08;;;;;;;4.07;1.38;;;;;;;;;;5061343;28;20541;-54
2021/06/30 03:49:33;;;;;;;1.27;0.98;;;;;;;;;;5062783;28;20185;-54
2021/06/30 03:51:59;;;;;;;0.88;0.88;;;;;;;;;;5060500;28;20192;-54
2021/06/30 03:54:25;;;;;;;2.75;1.00;;;;;;;;;;5063323;28;20185;-54
2021/06/30 03:56:53;;;;;;;2.72;1.23;;;;;;;;;;5062795;28;20186;-54
2021/06/30 03:59:20;;;;;;;1.10;1.00;;;;;;;;;;5060919;28;20192;-52
2021/06/30 04:01:46;;;;;;;1.20;0.90;;;;;;;;;;5060592;28;20242;-55
2021/06/30 04:04:13;;;;;;;2.30;1.13;;;;;;;;;;5062090;28;20178;-55
2021/06/30 04:06:41;;;;;;;2.92;0.93;;;;;;;;;;5058114;28;20189;-54
2021/06/30 04:09:07;;;;;;;1.27;0.80;;;;;;;;;;5062393;28;20185;-54
2021/06/30 04:11:33;;;;;;;2.97;0.98;;;;;;;;;;5062580;28;20212;-54
2021/06/30 04:13:58;;;;;;;1.25;0.95;;;;;;;;;;5057908;28;20248;-55
2021/06/30 04:16:24;;;;;;;2.65;1.08;;;;;;;;;;5057819;28;20269;-54
2021/06/30 04:18:49;;;;;;;3.00;0.70;;;;;;;;;;5055236;28;20216;-54
2021/06/30 04:21:15;;;;;;;1.98;1.33;;;;;;;;;;5060025;28;20208;-54
2021/06/30 04:23:40;;;;;;;1.77;1.00;;;;;;;;;;5058939;28;20784;-54
2021/06/30 04:26:05;;;;;;;1.75;0.75;;;;;;;;;;5061229;28;20197;-53
2021/06/30 04:28:31;;;;;;;1.80;1.30;;;;;;;;;;5041024;28;20266;-53
2021/06/30 04:30:57;;;;;;;2.05;1.35;;;;;;;;;;5059355;28;20186;-55
2021/06/30 04:33:23;;;;;;;1.70;0.95;;;;;;;;;;5063926;28;20578;-55
2021/06/30 04:35:48;;;;;;;3.03;1.10;;;;;;;;;;5062968;28;20185;-54
2021/06/30 04:38:13;;;;;;;3.10;1.13;;;;;;;;;;5065401;28;20571;-52
2021/06/30 04:40:39;;;;;;;1.48;1.27;;;;;;;;;;5064758;28;20184;-53
2021/06/30 04:43:04;;;;;;;1.77;1.15;;;;;;;;;;5046837;28;20216;-53
2021/06/30 04:45:29;;;;;;;4.20;1.70;;;;;;;;;;5063411;28;20189;-54
2021/06/30 04:47:55;;;;;;;2.97;1.77;;;;;;;;;;5063263;28;20206;-54
2021/06/30 04:50:20;;;;;;;1.90;1.70;;;;;;;;;;5064784;28;20189;-53
2021/06/30 04:52:45;;;;;;;1.95;1.48;;;;;;;;;;5065619;28;20200;-54
2021/06/30 04:55:11;;;;;;;1.60;1.50;;;;;;;;;;5063147;28;20292;-52
2021/06/30 04:57:37;;;;;;;1.52;1.35;;;;;;;;;;5061705;28;20178;-53
2021/06/30 05:00:05;;;;;;;3.08;1.23;;;;;;;;;;5058246;28;20185;-54
2021/06/30 05:02:30;;;;;;;3.00;1.33;;;;;;;;;;5047928;28;20716;-53
2021/06/30 05:04:55;;;;;;;1.45;1.30;;;;;;;;;;5050274;28;20235;-53
2021/06/30 05:07:21;;;;;;;2.95;1.30;;;;;;;;;;5046841;28;20185;-54
2021/06/30 05:09:46;;;;;;;4.28;1.65;;;;;;;;;;5065075;28;20235;-54
2021/06/30 05:12:12;;;;;;;2.15;1.58;;;;;;;;;;5064254;28;20717;-53
2021/06/30 05:14:37;;;;;;;1.95;1.38;;;;;;;;;;5060807;28;20216;-53
2021/06/30 05:17:02;;;;;;;3.33;1.50;;;;;;;;;;5049590;28;20681;-54
2021/06/30 05:19:29;;;;;;;2.63;1.15;;;;;;;;;;5060208;28;20251;-54
2021/06/30 05:21:55;;;;;;;2.45;1.90;;;;;;;;;;5066336;28;20280;-54
2021/06/30 05:24:20;;;;;;;1.48;1.20;;;;;;;;;;5063010;28;20635;-54
2021/06/30 05:26:46;;;;;;;5.03;1.65;;;;;;;;;;5064724;28;20181;-54
2021/06/30 05:29:11;;;;;;;1.38;1.27;;;;;;;;;;5046281;28;20182;-55
2021/06/30 05:31:36;;;;;;;1.77;1.58;;;;;;;;;;5044231;28;20247;-53
2021/06/30 05:34:02;;;;;;;1.90;1.70;;;;;;;;;;5064803;28;20208;-53
2021/06/30 05:36:27;;;;;;;1.90;1.52;;;;;;;;;;5063740;28;20809;-53
2021/06/30 05:38:52;;;;;;;2.95;1.48;;;;;;;;;;5059223;28;20261;-60
2021/06/30 05:41:17;;;;;;;1.42;1.33;;;;;;;;;;5051863;28;20708;-54
2021/06/30 05:43:43;;;;;;;2.70;1.70;;;;;;;;;;5061385;28;20689;-54
2021/06/30 05:46:08;;;;;;;2.10;1.58;;;;;;;;;;5062473;28;20634;-53
2021/06/30 05:48:34;;;;;;;2.22;1.73;;;;;;;;;;5065230;28;20188;-54
2021/06/30 05:51:00;;;;;;;2.38;1.63;;;;;;;;;;5062482;28;21153;-53
2021/06/30 05:53:26;;;;;;;2.40;1.70;;;;;;;;;;5063940;28;20262;-53
2021/06/30 05:55:51;;;;;;;3.05;2.00;;;;;;;;;;5060578;28;20185;-54
2021/06/30 05:58:16;;;;;;;1.70;1.60;;;;;;;;;;5062144;28;20204;-54
2021/06/30 06:00:42;;;;;;;3.25;1.85;;;;;;;;;;5065893;28;20217;-54
2021/06/30 06:03:09;;;;;;;2.58;1.70;;;;;;;;;;5045660;28;20209;-53
2021/06/30 06:05:34;;;;;;;2.28;1.52;;;;;;;;;;5066362;28;20189;-54
2021/06/30 06:07:59;;;;;;;1.40;1.30;;;;;;;;;;5063926;28;20181;-54
2021/06/30 06:10:25;;;;;;;1.67;1.50;;;;;;;;;;5063149;28;20186;-54
2021/06/30 06:12:50;;;;;;;2.65;1.20;;;;;;;;;;5055785;28;20591;-54
2021/06/30 06:15:15;;;;;;;1.65;1.38;;;;;;;;;;5064454;28;20229;-53
2021/06/30 06:17:40;;;;;;;1.23;1.13;;;;;;;;;;5047290;28;20268;-53
2021/06/30 06:20:08;;;;;;;1.75;1.25;;;;;;;;;;5062132;28;20197;-53
2021/06/30 06:22:33;;;;;;;3.28;1.30;;;;;;;;;;5048918;28;20217;-53
2021/06/30 06:24:59;;;;;;;1.70;1.60;;;;;;;;;;5061553;28;20216;-53
2021/06/30 06:27:24;;;;;;;2.17;1.02;;;;;;;;;;5063003;28;20173;-53
2021/06/30 06:29:51;;;;;;;2.55;1.10;;;;;;;;;;5049310;28;20192;-53
2021/06/30 06:32:17;;;;;;;1.75;1.30;;;;;;;;;;5044236;28;20216;-53
2021/06/30 06:34:42;;;;;;;1.73;1.10;;;;;;;;;;5062845;28;20185;-54
2021/06/30 06:37:11;;;;;;;1.40;1.30;;;;;;;;;;5060911;28;20657;-54
2021/06/30 06:39:37;;;;;;;1.73;1.63;;;;;;;;;;5063344;28;20200;-54
2021/06/30 06:42:03;;;;;;;2.10;1.80;;;;;;;;;;5061149;28;20205;-54
2021/06/30 06:44:29;;;;;;;3.72;1.92;;;;;;;;;;5058597;28;20271;-53
2021/06/30 06:46:54;;;;;;;3.35;1.52;;;;;;;;;;5058164;28;20692;-51
2021/06/30 06:49:19;;;;;;;2.78;2.10;;;;;;;;;;5059396;28;20223;-53
2021/06/30 06:51:45;;;;;;;2.67;1.90;;;;;;;;;;5063036;28;20273;-53
2021/06/30 06:54:10;;;;;;;3.42;2.15;;;;;;;;;;5060228;28;20193;-54
2021/06/30 06:56:36;;;;;;;3.10;2.78;;;;;;;;;;5061277;28;20181;-54
2021/06/30 06:59:01;;;;;;;3.10;2.50;;;;;;;;;;5045746;28;20196;-54
2021/06/30 07:01:27;;;;;;;4.80;3.60;;;;;;;;;;5047623;28;20197;-54
2021/06/30 07:03:52;;;;;;;4.53;2.60;;;;;;;;;;5059875;28;20218;-54
2021/06/30 07:06:18;;;;;;;4.13;2.92;;;;;;;;;;5064745;28;20209;-54
2021/06/30 07:08:44;;;;;;;19.23;3.50;;;;;;;;;;5063569;28;20727;-54
2021/06/30 07:11:09;;;;;;;4.38;1.77;;;;;;;;;;5064892;28;20174;-55
2021/06/30 07:13:36;;;;;;;3.05;2.53;;;;;;;;;;5046941;28;20197;-54
2021/06/30 07:16:04;;;;;;;3.10;2.30;;;;;;;;;;5055760;22;20245;-58
2021/06/30 07:18:29;;;;;;;2.80;2.00;;;;;;;;;;5024048;28;20240;-57
2021/06/30 07:20:54;;;;;;;3.70;2.35;;;;;;;;;;5044186;28;20217;-56
2021/06/30 07:23:20;;;;;;;4.88;2.42;;;;;;;;;;5044170;28;20655;-57
2021/06/30 07:25:45;;;;;;;2.40;2.15;;;;;;;;;;5040527;28;20689;-61
2021/06/30 07:28:10;;;;;;;3.65;2.42;;;;;;;;;;5046441;28;20239;-60
2021/06/30 07:30:37;;;;;;;2.65;2.42;;;;;;;;;;5044703;28;20585;-57
2021/06/30 07:33:03;;;;;;;4.13;2.17;;;;;;;;;;5042194;28;20194;-57
2021/06/30 07:35:28;;;;;;;3.83;2.42;;;;;;;;;;5029511;28;20809;-57
2021/06/30 07:37:53;;;;;;;4.03;2.40;;;;;;;;;;5046572;28;20248;-60
2021/06/30 07:40:19;;;;;;;2.88;2.22;;;;;;;;;;5044853;28;20178;-56
2021/06/30 07:42:44;;;;;;;3.50;2.75;;;;;;;;;;5043750;28;20194;-57
2021/06/30 07:45:10;;;;;;;5.47;3.00;;;;;;;;;;5042392;28;20255;-58
2021/06/30 07:47:35;;;;;;;5.03;3.20;;;;;;;;;;5042751;28;20674;-58
2021/06/30 07:50:03;;;;;;;5.28;4.18;;;;;;;;;;5050327;28;20194;-57
2021/06/30 07:52:28;;;;;;;7.10;3.33;;;;;;;;;;5029958;28;20198;-57
2021/06/30 07:54:53;;;;;;;8.45;4.65;;;;;;;;;;5042636;28;20213;-59
2021/06/30 07:57:19;;;;;;;7.63;4.55;;;;;;;;;;5045552;28;20178;-58
2021/06/30 07:59:44;;;;;;;8.75;5.05;;;;;;;;;;5046013;28;20897;-57
2021/06/30 08:02:10;;;;;;;6.53;4.55;;;;;;;;;;5040030;28;20182;-57
2021/06/30 08:04:35;;;;;;;6.50;5.22;;;;;;;;;;5044210;28;20186;-58
2021/06/30 08:07:00;;;;;;;8.82;4.82;;;;;;;;;;5049768;28;21106;-58
2021/06/30 08:09:27;;;;;;;8.90;5.40;;;;;;;;;;5046635;28;20181;-59
2021/06/30 08:11:52;;;;;;;8.35;5.30;;;;;;;;;;5041992;28;20189;-56
2021/06/30 08:14:18;;;;;;;8.32;6.03;;;;;;;;;;5046897;28;20193;-58
2021/06/30 08:16:43;;;;;;;8.55;5.65;;;;;;;;;;5047262;28;20221;-59
2021/06/30 08:19:08;;;;;;;11.13;6.50;;;;;;;;;;5047826;28;20269;-58
2021/06/30 08:21:35;;;;;;;6.20;4.80;;;;;;;;;;5048514;28;20206;-56
2021/06/30 08:24:00;;;;;;;7.10;4.88;;;;;;;;;;5044581;28;20684;-58
2021/06/30 08:26:26;;;;;;;5.32;4.55;;;;;;;;;;5032116;28;20214;-56
2021/06/30 08:28:51;;;;;;;6.88;5.10;;;;;;;;;;5055088;28;20203;-61
2021/06/30 08:31:16;;;;;;;9.85;5.13;;;;;;;;;;5052755;28;20219;-56
2021/06/30 08:33:42;;;;;;;7.72;4.30;;;;;;;;;;5052979;28;20490;-59
2021/06/30 08:36:07;;;;;;;6.68;4.25;;;;;;;;;;5047048;28;20929;-57
2021/06/30 08:38:32;;;;;;;6.88;3.88;;;;;;;;;;5041344;28;20186;-58
2021/06/30 08:40:59;;;;;;;6.05;3.97;;;;;;;;;;5047713;28;20193;-58
2021/06/30 08:43:26;;;;;;;7.68;3.90;;;;;;;;;;5048973;28;20209;-59
2021/06/30 08:45:52;;;;;;;9.02;4.75;;;;;;;;;;5034970;28;20209;-59
2021/06/30 08:48:19;;;;;;;8.43;4.47;;;;;;;;;;5032801;28;20217;-59
2021/06/30 08:50:45;;;;;;;6.57;5.13;;;;;;;;;;5044186;28;20570;-58
2021/06/30 08:53:13;;;;;;;11.45;5.78;;;;;;;;;;5027873;28;20185;-58
2021/06/30 08:55:42;;;;;;;8.43;4.82;;;;;;;;;;5037677;28;20198;-59
2021/06/30 08:58:08;;;;;;;9.80;5.78;;;;;;;;;;5045533;28;20221;-56
2021/06/30 09:00:34;;;;;;;7.43;4.57;;;;;;;;;;5044622;28;20206;-58
2021/06/30 09:03:00;;;;;;;8.18;5.45;;;;;;;;;;5044468;28;20210;-58
2021/06/30 09:07:53;;;;;;;7.45;5.03;;;;;;;;;;5045488;28;20201;-58
2021/06/30 09:10:35;;;;;;;6.93;5.30;;;;;;;;;;5042228;28;20183;-58
2021/06/30 09:13:03;;;;;;;6.35;4.80;;;;;;;;;;5028782;28;20269;-58
2021/06/30 09:15:37;;;;;;;5.57;4.30;;;;;;;;;;5048052;28;20210;-59
2021/06/30 09:18:19;;;;;;;8.02;4.85;;;;;;;;;;5045346;28;20185;-57
2021/06/30 09:20:47;;;;;;;5.93;4.35;;;;;;;;;;5042870;28;20281;-57
2021/06/30 09:23:13;;;;;;;6.38;4.53;;;;;;;;;;5044059;28;20267;-58
2021/06/30 09:25:41;;;;;;;12.30;5.80;;;;;;;;;;5031885;28;20627;-58
2021/06/30 09:28:15;;;;;;;7.07;5.45;;;;;;;;;;5027278;28;20185;-58
2021/06/30 09:30:58;;;;;;;10.80;8.30;;;;;;;;;;5044270;28;20212;-58
2021/06/30 09:33:24;;;;;;;16.52;6.30;;;;;;;;;;5044517;28;20260;-58
2021/06/30 09:36:03;;;;;;;7.05;4.55;;;;;;;;;;5032531;28;20213;-59
2021/06/30 09:38:31;;;;;;;4.45;3.58;;;;;;;;;;5043937;28;20193;-56
2021/06/30 09:40:57;;;;;;;10.73;5.32;;;;;;;;;;5046168;28;20555;-59
2021/06/30 09:43:33;;;;;;;5.97;4.75;;;;;;;;;;5044130;28;20196;-58
2021/06/30 09:46:02;;;;;;;7.32;4.80;;;;;;;;;;5045783;28;20197;-59
2021/06/30 09:48:29;;;;;;;6.85;4.50;;;;;;;;;;5042253;28;20273;-59
2021/06/30 09:50:55;;;;;;;9.00;4.63;;;;;;;;;;5029042;28;20194;-59
2021/06/30 09:53:39;;;;;;;8.27;5.22;;;;;;;;;;5045510;28;20174;-59
2021/06/30 09:56:34;;;;;;;6.78;4.97;;;;;;;;;;5045341;28;20209;-59
2021/06/30 09:59:25;;;;;;;11.73;4.82;;;;;;;;;;5025031;28;20198;-60
2021/06/30 10:01:59;;;;;;;5.50;3.45;;;;;;;;;;5044974;28;20223;-57
2021/06/30 10:04:46;;;;;;;9.68;5.05;;;;;;;;;;5043405;28;20235;-59
2021/06/30 10:07:25;;;;;;;6.07;4.85;;;;;;;;;;5054610;28;20176;-59
2021/06/30 10:09:50;;;;;;;6.78;4.82;;;;;;;;;;5041105;28;20248;-59
2021/06/30 10:12:21;;;;;;;5.78;4.22;;;;;;;;;;5029999;28;20781;-59
2021/06/30 10:14:46;;;;;;;5.50;4.50;;;;;;;;;;5029901;28;20644;-59
2021/06/30 10:17:13;;;;;;;9.13;5.38;;;;;;;;;;5045319;28;20213;-58
2021/06/30 10:19:40;;;;;;;6.82;5.22;;;;;;;;;;5044234;28;20193;-60
2021/06/30 10:22:08;;;;;;;7.25;5.45;;;;;;;;;;5043286;28;20221;-58
2021/06/30 10:24:33;;;;;;;8.20;5.97;;;;;;;;;;5031473;28;20194;-59
2021/06/30 10:26:59;;;;;;;7.45;5.93;;;;;;;;;;5045107;28;20726;-58
2021/06/30 10:29:27;;;;;;;9.00;5.90;;;;;;;;;;5039634;28;20182;-59
2021/06/30 10:31:56;;;;;;;9.32;6.35;;;;;;;;;;5027042;28;20189;-59
2021/06/30 10:34:35;;;;;;;9.02;6.45;;;;;;;;;;5043122;28;20557;-59
2021/06/30 10:37:00;;;;;;;9.65;6.68;;;;;;;;;;5042987;28;20224;-59
2021/06/30 10:39:35;;;;;;;12.55;6.60;;;;;;;;;;5044775;28;20200;-59
2021/06/30 10:42:15;;;;;;;8.07;5.72;;;;;;;;;;5040494;28;20272;-59
2021/06/30 10:44:46;;;;;;;8.43;5.97;;;;;;;;;;5042765;28;20190;-59
2021/06/30 10:47:46;;;;;;;9.48;6.10;;;;;;;;;;5042876;28;20227;-59
2021/06/30 10:50:23;;;;;;;11.52;6.88;;;;;;;;;;5040803;28;20202;-59
2021/06/30 10:53:01;;;;;;;9.27;6.82;;;;;;;;;;5043902;28;20174;-60
2021/06/30 10:55:32;;;;;;;9.00;6.35;;;;;;;;;;5045617;28;20209;-58
2021/06/30 10:58:13;;;;;;;8.38;5.82;;;;;;;;;;5044126;28;20278;-58
2021/06/30 11:00:46;;;;;;;9.73;5.88;;;;;;;;;;5043135;28;20186;-59
2021/06/30 11:03:25;;;;;;;7.80;5.47;;;;;;;;;;5043946;28;20615;-58
2021/06/30 11:06:07;;;;;;;8.73;5.95;;;;;;;;;;5039759;28;20321;-57
2021/06/30 11:08:58;;;;;;;7.30;5.43;;;;;;;;;;5044750;28;20224;-58
2021/06/30 11:11:26;;;;;;;9.75;6.07;;;;;;;;;;5045914;28;20234;-57
2021/06/30 11:13:59;;;;;;;8.85;6.53;;;;;;;;;;5042445;28;20186;-58
2021/06/30 11:16:36;;;;;;;9.68;5.28;;;;;;;;;;5024257;28;20465;-58
2021/06/30 11:19:07;;;;;;;9.13;6.13;;;;;;;;;;5043143;28;20186;-57
2021/06/30 11:21:52;;;;;;;9.18;6.07;;;;;;;;;;5035730;28;20208;-58
2021/06/30 11:24:40;;;;;;;9.70;5.95;;;;;;;;;;5033131;28;20202;-58
2021/06/30 11:27:16;;;;;;;7.95;6.00;;;;;;;;;;5036399;28;20214;-57
2021/06/30 11:30:02;;;;;;;7.30;5.15;;;;;;;;;;5052079;28;20185;-57
2021/06/30 11:32:36;;;;;;;8.18;5.45;;;;;;;;;;5048788;28;20177;-59
2021/06/30 11:35:10;;;;;;;5.22;4.60;;;;;;;;;;5052737;28;20207;-59
2021/06/30 11:37:41;;;;;;;9.35;5.60;;;;;;;;;;5042476;28;20215;-58
2021/06/30 11:40:16;;;;;;;6.68;5.18;;;;;;;;;;5051396;28;20192;-58
2021/06/30 11:42:47;;;;;;;7.63;5.25;;;;;;;;;;5057763;28;20211;-59
2021/06/30 11:45:32;;;;;;;8.18;5.70;;;;;;;;;;5056786;28;20760;-60
2021/06/30 11:48:03;;;;;;;11.27;6.60;;;;;;;;;;5056654;28;20702;-60
2021/06/30 11:50:42;;;;;;;6.18;5.05;;;;;;;;;;5056323;28;20189;-58
2021/06/30 11:53:08;;;;;;;7.25;5.28;;;;;;;;;;5054269;28;20263;-59
2021/06/30 11:55:39;;;;;;;7.13;5.10;;;;;;;;;;5030735;28;20226;-58
2021/06/30 11:58:04;;;;;;;8.10;5.30;;;;;;;;;;5055769;28;20722;-58
2021/06/30 12:00:33;;;;;;;7.50;4.97;;;;;;;;;;5050856;28;20193;-60
2021/06/30 12:03:00;;;;;;;5.35;4.63;;;;;;;;;;5056539;28;20217;-58
2021/06/30 12:05:27;;;;;;;5.78;4.95;;;;;;;;;;5027849;28;20209;-59
2021/06/30 12:07:54;;;;;;;5.38;4.78;;;;;;;;;;5057824;28;20194;-60
2021/06/30 12:10:21;;;;;;;5.65;5.00;;;;;;;;;;5051615;28;20657;-60
2021/06/30 12:12:49;;;;;;;10.35;5.47;;;;;;;;;;5050918;28;20677;-59
2021/06/30 12:15:15;;;;;;;5.70;5.03;;;;;;;;;;5049841;28;20210;-60
2021/06/30 12:17:49;;;;;;;9.45;5.68;;;;;;;;;;5050126;28;20188;-58
2021/06/30 12:20:16;;;;;;;6.50;4.85;;;;;;;;;;5041253;28;20182;-59
2021/06/30 12:22:42;;;;;;;5.93;5.10;;;;;;;;;;5046266;28;20777;-57
2021/06/30 12:25:12;;;;;;;7.15;5.55;;;;;;;;;;5030637;28;20385;-58
2021/06/30 12:27:40;;;;;;;6.18;5.40;;;;;;;;;;5042645;28;20371;-58
2021/06/30 12:30:09;;;;;;;5.88;4.47;;;;;;;;;;5047601;28;20186;-59
2021/06/30 12:32:37;;;;;;;6.28;4.38;;;;;;;;;;5032847;28;20174;-58
2021/06/30 12:35:05;;;;;;;6.75;5.05;;;;;;;;;;5044625;28;20259;-57
2021/06/30 12:37:31;;;;;;;7.57;5.85;;;;;;;;;;5046749;28;20285;-58
2021/06/30 12:39:59;;;;;;;5.40;4.57;;;;;;;;;;5045142;28;20594;-57
2021/06/30 12:42:52;;;;;;;5.55;4.90;;;;;;;;;;5046415;28;20202;-59
2021/06/30 12:45:20;;;;;;;7.80;5.50;;;;;;;;;;5045433;28;20206;-59
2021/06/30 12:47:58;;;;;;;6.57;5.80;;;;;;;;;;5043677;28;20186;-58
2021/06/30 12:50:36;;;;;;;8.52;6.55;;;;;;;;;;5045127;28;20208;-57
2021/06/30 12:53:03;;;;;;;7.07;6.00;;;;;;;;;;5045544;28;20268;-58
2021/06/30 12:55:28;;;;;;;7.00;6.28;;;;;;;;;;5045922;28;20232;-61
2021/06/30 12:57:58;;;;;;;6.22;5.45;;;;;;;;;;5045580;28;20662;-58
2021/06/30 13:00:24;;;;;;;8.13;6.43;;;;;;;;;;5032586;28;20269;-59
2021/06/30 13:03:16;;;;;;;7.60;6.32;;;;;;;;;;5045351;28;20331;-56
2021/06/30 13:05:44;;;;;;;7.57;6.03;;;;;;;;;;5044643;28;20244;-58
2021/06/30 13:08:36;;;;;;;8.25;6.53;;;;;;;;;;5043808;28;20193;-58
2021/06/30 13:11:18;;;;;;;8.20;6.40;;;;;;;;;;5042650;28;20174;-58
2021/06/30 13:14:02;;;;;;;6.40;5.78;;;;;;;;;;5043585;28;20182;-58
2021/06/30 13:16:29;;;;;;;9.52;6.55;;;;;;;;;;5076947;22;20362;-57
2021/06/30 13:18:57;;;;;;;8.32;5.97;;;;;;;;;;5063184;28;20437;-56
2021/06/30 13:21:29;;;;;;;6.60;5.70;;;;;;;;;;5063471;28;20213;-56
2021/06/30 13:23:58;;;;;;;9.55;6.70;;;;;;;;;;5066049;28;20189;-56
2021/06/30 13:35:34;;;;;;;8.50;6.18;;;;;;;;;;5079744;28;20596;-56
2021/06/30 13:38:07;;;;;;;9.70;7.00;;;;;;;;;;5070977;28;20196;-56
2021/06/30 13:40:35;;;;;;;9.70;7.18;;;;;;;;;;5082836;28;20648;-56
2021/06/30 13:43:04;;;;;;;11.15;7.90;;;;;;;;;;5063533;28;20200;-56
2021/06/30 13:45:41;;;;;;;10.40;7.88;;;;;;;;;;5085385;28;20266;-56
2021/06/30 13:48:09;;;;;;;13.55;8.77;;;;;;;;;;5082445;28;20278;-57
2021/06/30 13:50:35;;;;;;;12.23;8.73;;;;;;;;;;5084986;28;20661;-57
2021/06/30 13:53:02;;;;;;;11.00;7.82;;;;;;;;;;5082403;28;20185;-55
2021/06/30 13:55:27;;;;;;;8.40;6.50;;;;;;;;;;5080276;28;20185;-56
2021/06/30 13:57:53;;;;;;;8.70;7.22;;;;;;;;;;5080307;28;20202;-56
2021/06/30 14:00:19;;;;;;;8.43;6.22;;;;;;;;;;5080892;28;20188;-57
2021/06/30 14:02:44;;;;;;;9.10;6.50;;;;;;;;;;5083386;28;20200;-56
2021/06/30 14:05:10;;;;;;;6.47;5.75;;;;;;;;;;5076761;28;20181;-57
2021/06/30 14:07:35;;;;;;;12.27;10.93;;;;;;;;;;5063807;28;20208;-56
2021/06/30 14:10:02;;;;;;;11.73;10.52;;;;;;;;;;5081407;28;20267;-56
2021/06/30 14:12:27;;;;;;;11.60;10.50;;;;;;;;;;5081105;28;20180;-58
2021/06/30 14:14:52;;;;;;;10.73;9.55;;;;;;;;;;5084358;28;20196;-58
2021/06/30 14:17:18;;;;;;;11.23;9.73;;;;;;;;;;5085053;28;20294;-57
2021/06/30 14:19:44;;;;;;;12.05;10.30;;;;;;;;;;5067000;28;20223;-57
2021/06/30 14:22:19;;;;;;;12.23;10.98;;;;;;;;;;5082876;28;20320;-57
2021/06/30 14:24:44;;;;;;;11.05;10.05;;;;;;;;;;5084559;28;20180;-57
2021/06/30 14:27:10;;;;;;;11.35;10.20;;;;;;;;;;5079726;28;20215;-57
2021/06/30 14:29:35;;;;;;;11.88;10.68;;;;;;;;;;5082430;28;20185;-56
2021/06/30 14:32:00;;;;;;;13.18;11.77;;;;;;;;;;5083209;28;20189;-56
2021/06/30 14:34:25;;;;;;;13.05;11.57;;;;;;;;;;5080569;28;20191;-56
2021/06/30 14:36:51;;;;;;;13.40;11.35;;;;;;;;;;5069458;28;20235;-56
2021/06/30 14:39:16;;;;;;;15.25;11.02;;;;;;;;;;5081742;28;20189;-56
2021/06/30 14:41:41;;;;;;;12.55;11.43;;;;;;;;;;5081093;28;20685;-56
2021/06/30 14:44:06;;;;;;;13.63;12.25;;;;;;;;;;5084977;28;20268;-57
2021/06/30 14:46:32;;;;;;;14.35;12.85;;;;;;;;;;5059479;28;20220;-57
2021/06/30 14:48:57;;;;;;;13.60;12.20;;;;;;;;;;5081470;28;20176;-57
2021/06/30 14:51:22;;;;;;;13.85;11.85;;;;;;;;;;5059734;28;20188;-56
2021/06/30 14:53:48;;;;;;;13.60;12.23;;;;;;;;;;5068564;28;20200;-57
2021/06/30 14:56:13;;;;;;;13.43;11.68;;;;;;;;;;5083137;28;20222;-56